createdAt,value
2018-02-25T00:09:52.471Z,22.50
2018-02-25T00:20:02.039Z,22.50
2018-02-25T00:30:12.609Z,22.40
2018-02-25T00:40:20.799Z,22.40
2018-02-25T00:50:29.653Z,22.40
2018-02-25T01:00:40.429Z,22.40
2018-02-25T01:10:49.732Z,22.30
2018-02-25T01:20:58.825Z,22.30
2018-02-25T01:31:09.812Z,22.30
2018-02-25T01:41:18.586Z,22.30
2018-02-25T01:51:28.213Z,22.30
2018-02-25T02:01:39.517Z,22.20
2018-02-25T02:11:48.900Z,22.20
2018-02-25T02:21:57.789Z,22.20
2018-02-25T02:32:12.796Z,22.20
2018-02-25T03:03:24.183Z,22.10
2018-02-25T03:13:33.446Z,22.10
2018-02-25T03:23:42.510Z,22.20
2018-02-25T03:33:56.699Z,22.20
2018-02-25T03:44:07.868Z,22.20
2018-02-25T03:54:15.705Z,22.20
2018-02-25T04:04:26.422Z,22.30
2018-02-25T04:14:35.195Z,22.30
2018-02-25T04:24:44.148Z,22.40
2018-02-25T04:34:54.992Z,22.50
2018-02-25T04:45:05.376Z,22.60
2018-02-25T04:55:20.428Z,22.80
2018-02-25T05:05:29.870Z,22.80
2018-02-25T05:15:40.359Z,22.90
2018-02-25T05:25:51.168Z,23.20
2018-02-25T05:36:02.045Z,23.40
2018-02-25T05:46:10.738Z,23.30
2018-02-25T05:56:21.190Z,23.50
2018-02-25T06:06:31.707Z,23.50
2018-02-25T06:16:40.906Z,23.70
2018-02-25T06:26:51.652Z,23.90
2018-02-25T06:37:02.553Z,24.00
2018-02-25T06:47:12.205Z,24.20
2018-02-25T06:57:26.444Z,24.20
2018-02-25T07:07:38.982Z,24.50
2018-02-25T07:17:47.615Z,24.50
2018-02-25T07:27:59.368Z,24.60
2018-02-25T07:38:07.590Z,24.60
2018-02-25T07:48:17.039Z,24.70
2018-02-25T07:58:27.712Z,24.60
2018-02-25T08:08:38.782Z,24.60
2018-02-25T08:18:48.947Z,24.50
2018-02-25T08:28:58.233Z,24.30
2018-02-25T08:39:08.705Z,24.10
2018-02-25T08:49:18.330Z,23.90
2018-02-25T08:59:27.798Z,23.80
2018-02-25T09:09:36.274Z,23.70
2018-02-25T09:19:46.354Z,23.40
2018-02-25T09:29:58.013Z,23.40
2018-02-25T09:40:08.318Z,23.20
2018-02-25T09:50:22.529Z,23.10
2018-02-25T10:00:38.200Z,23.00
2018-02-25T10:10:47.507Z,22.80
2018-02-25T10:20:58.229Z,22.70
2018-02-25T10:31:09.896Z,22.60
2018-02-25T10:41:18.868Z,22.60
2018-02-25T10:51:33.081Z,22.50
2018-02-25T11:01:42.374Z,22.60
2018-02-25T11:11:52.608Z,22.50
2018-02-25T11:22:03.787Z,22.60
2018-02-25T11:32:15.228Z,22.70
2018-02-25T11:42:23.989Z,22.60
2018-02-25T11:52:32.696Z,22.60
2018-02-25T12:02:41.479Z,22.60
2018-02-25T12:12:51.687Z,22.40
2018-02-25T12:23:00.913Z,22.40
2018-02-25T12:33:09.985Z,22.20
2018-02-25T12:43:21.676Z,22.20
2018-02-25T12:53:33.496Z,22.30
2018-02-25T13:03:47.605Z,22.40
2018-02-25T13:14:00.488Z,22.40
2018-02-25T13:24:11.626Z,22.40
2018-02-25T13:34:20.768Z,22.40
2018-02-25T13:44:30.665Z,22.40
2018-02-25T13:54:44.894Z,22.30
2018-02-25T14:04:57.711Z,22.40
2018-02-25T14:15:13.067Z,22.30
2018-02-25T14:25:24.816Z,22.30
2018-02-25T14:35:37.030Z,22.20
2018-02-25T14:45:49.545Z,22.20
2018-02-25T14:56:01.688Z,22.00
2018-02-25T15:06:11.504Z,22.00
2018-02-25T15:16:29.125Z,21.90
2018-02-25T15:26:37.204Z,21.90
2018-02-25T15:36:53.182Z,21.90
2018-02-25T15:47:03.306Z,22.00
2018-02-25T15:57:16.531Z,21.90
2018-02-25T16:07:25.044Z,22.00
2018-02-25T16:17:33.733Z,22.10
2018-02-25T16:27:45.356Z,22.10
2018-02-25T16:37:55.245Z,22.20
2018-02-25T16:48:09.852Z,22.20
2018-02-25T16:58:18.712Z,22.20
2018-02-25T17:08:31.194Z,22.30
2018-02-25T17:18:44.188Z,22.30
2018-02-25T17:28:52.945Z,22.40
2018-02-25T17:49:22.788Z,22.60
2018-02-25T17:59:32.305Z,22.60
2018-02-25T18:09:49.385Z,22.60
2018-02-25T18:20:00.448Z,22.70
2018-02-25T18:30:14.501Z,22.70
2018-02-25T18:40:22.728Z,22.70
2018-02-25T18:50:35.371Z,22.80
2018-02-25T19:00:44.750Z,22.80
2018-02-25T19:10:54.970Z,23.00
2018-02-25T19:21:03.233Z,22.90
2018-02-25T19:31:15.666Z,23.00
2018-02-25T19:41:29.315Z,23.10
2018-02-25T19:51:44.297Z,23.20
2018-02-25T20:01:54.573Z,23.20
2018-02-25T20:12:05.998Z,23.20
2018-02-25T20:22:23.120Z,23.20
2018-02-25T20:32:32.517Z,23.40
2018-02-25T20:42:41.420Z,23.40
2018-02-25T20:52:49.160Z,23.30
2018-02-25T21:03:04.575Z,23.50
2018-02-25T21:13:21.472Z,23.50
2018-02-25T21:23:31.279Z,23.50
2018-02-25T21:33:39.242Z,23.50
2018-02-25T21:43:54.094Z,23.60
2018-02-25T21:54:03.862Z,23.60
2018-02-25T22:04:14.188Z,23.70
2018-02-25T22:14:26.047Z,23.60
2018-02-25T22:24:35.064Z,23.70
2018-02-25T22:34:45.486Z,23.70
2018-02-25T22:44:56.570Z,23.80
2018-02-25T22:55:05.552Z,23.70
2018-02-25T23:05:18.614Z,23.80
2018-02-25T23:15:28.416Z,23.80
2018-02-25T23:25:37.699Z,23.80
2018-02-25T23:35:47.610Z,23.80
2018-02-25T23:45:59.629Z,23.80
2018-02-25T23:56:07.930Z,23.80
